<?xml version="1.0" encoding="UTF-8" standalone="no" ?>
<gpx xmlns="http://www.topografix.com/GPX/1/1" xmlns:xsi="http://www.w3.org/2001/XMLSchema-instance" xsi:schemaLocation="http://www.topografix.com/GPX/1/1 http://www.topografix.com/GPX/1/1/gpx.xsd" version="1.1" creator="VisuGPX - https://www.visugpx.com">
  <metadata>
    <name>Rando La Feuillie  Parcours n°2 Petit</name>
    <desc><![CDATA[Rando du samedi des sangliers du Vexin sur le parcours n°2, plus court et pmoins raide]]></desc>
  </metadata>
  <trk>
    <name><![CDATA[OR-6620561--Feuillie (La):Forêt de Lyons en Seine Maritime (-forts)]]></name>
    <trkseg>
      <trkpt lat="49.46432" lon="1.51497">
        <ele>178</ele>
        <time>2016-10-27T12:17:19Z</time>
      </trkpt>
      <trkpt lat="49.46381" lon="1.51416">
        <ele>178</ele>
        <time>2016-10-27T12:19:19Z</time>
      </trkpt>
      <trkpt lat="49.46372" lon="1.51384">
        <ele>177</ele>
        <time>2016-10-27T12:21:19Z</time>
      </trkpt>
      <trkpt lat="49.46423" lon="1.51258">
        <ele>177</ele>
        <time>2016-10-27T12:23:19Z</time>
      </trkpt>
      <trkpt lat="49.46549" lon="1.51071">
        <ele>176</ele>
        <time>2016-10-27T12:25:19Z</time>
      </trkpt>
      <trkpt lat="49.46447" lon="1.5085">
        <ele>174</ele>
        <time>2016-10-27T12:27:19Z</time>
      </trkpt>
      <trkpt lat="49.46309" lon="1.50429">
        <ele>173</ele>
        <time>2016-10-27T12:29:19Z</time>
      </trkpt>
      <trkpt lat="49.46339" lon="1.50401">
        <ele>172</ele>
        <time>2016-10-27T12:31:19Z</time>
      </trkpt>
      <trkpt lat="49.4657" lon="1.50144">
        <ele>176</ele>
        <time>2016-10-27T12:33:19Z</time>
      </trkpt>
      <trkpt lat="49.46611" lon="1.50082">
        <ele>175</ele>
        <time>2016-10-27T12:35:19Z</time>
      </trkpt>
      <trkpt lat="49.46637" lon="1.50157">
        <ele>176</ele>
        <time>2016-10-27T12:37:19Z</time>
      </trkpt>
      <trkpt lat="49.46825" lon="1.50084">
        <ele>171</ele>
        <time>2016-10-27T12:39:19Z</time>
      </trkpt>
      <trkpt lat="49.46918" lon="1.50019">
        <ele>173</ele>
        <time>2016-10-27T12:41:19Z</time>
      </trkpt>
      <trkpt lat="49.47189" lon="1.4979">
        <ele>182</ele>
        <time>2016-10-27T12:43:19Z</time>
      </trkpt>
      <trkpt lat="49.4719" lon="1.49749">
        <ele>183</ele>
        <time>2016-10-27T12:45:19Z</time>
      </trkpt>
      <trkpt lat="49.47267" lon="1.4967">
        <ele>186</ele>
        <time>2016-10-27T12:47:19Z</time>
      </trkpt>
      <trkpt lat="49.47314" lon="1.4964">
        <ele>186</ele>
        <time>2016-10-27T12:49:19Z</time>
      </trkpt>
      <trkpt lat="49.4737" lon="1.49577">
        <ele>186</ele>
        <time>2016-10-27T12:51:19Z</time>
      </trkpt>
      <trkpt lat="49.47371" lon="1.49537">
        <ele>186</ele>
        <time>2016-10-27T12:53:19Z</time>
      </trkpt>
      <trkpt lat="49.4731" lon="1.4941">
        <ele>183</ele>
        <time>2016-10-27T12:55:19Z</time>
      </trkpt>
      <trkpt lat="49.47334" lon="1.49283">
        <ele>185</ele>
        <time>2016-10-27T12:57:19Z</time>
      </trkpt>
      <trkpt lat="49.47367" lon="1.49208">
        <ele>186</ele>
        <time>2016-10-27T12:59:19Z</time>
      </trkpt>
      <trkpt lat="49.47369" lon="1.49129">
        <ele>187</ele>
        <time>2016-10-27T13:01:19Z</time>
      </trkpt>
      <trkpt lat="49.47413" lon="1.48929">
        <ele>185</ele>
        <time>2016-10-27T13:03:19Z</time>
      </trkpt>
      <trkpt lat="49.47413" lon="1.48876">
        <ele>183</ele>
        <time>2016-10-27T13:05:19Z</time>
      </trkpt>
      <trkpt lat="49.4743" lon="1.48788">
        <ele>180</ele>
        <time>2016-10-27T13:07:19Z</time>
      </trkpt>
      <trkpt lat="49.47297" lon="1.48556">
        <ele>175</ele>
        <time>2016-10-27T13:09:19Z</time>
      </trkpt>
      <trkpt lat="49.47654" lon="1.48131">
        <ele>179</ele>
        <time>2016-10-27T13:11:19Z</time>
      </trkpt>
      <trkpt lat="49.47857" lon="1.47563">
        <ele>174</ele>
        <time>2016-10-27T13:13:19Z</time>
      </trkpt>
      <trkpt lat="49.48188" lon="1.46972">
        <ele>156</ele>
        <time>2016-10-27T13:15:19Z</time>
      </trkpt>
      <trkpt lat="49.48159" lon="1.46917">
        <ele>152</ele>
        <time>2016-10-27T13:17:19Z</time>
      </trkpt>
      <trkpt lat="49.48073" lon="1.46794">
        <ele>150</ele>
        <time>2016-10-27T13:19:19Z</time>
      </trkpt>
      <trkpt lat="49.4818" lon="1.4664">
        <ele>129</ele>
        <time>2016-10-27T13:21:19Z</time>
      </trkpt>
      <trkpt lat="49.48222" lon="1.46586">
        <ele>121</ele>
        <time>2016-10-27T13:23:19Z</time>
      </trkpt>
      <trkpt lat="49.48301" lon="1.46537">
        <ele>111</ele>
        <time>2016-10-27T13:25:19Z</time>
      </trkpt>
      <trkpt lat="49.48385" lon="1.46511">
        <ele>98</ele>
        <time>2016-10-27T13:27:19Z</time>
      </trkpt>
      <trkpt lat="49.4845" lon="1.46511">
        <ele>91</ele>
        <time>2016-10-27T13:29:19Z</time>
      </trkpt>
      <trkpt lat="49.4847" lon="1.46494">
        <ele>89</ele>
        <time>2016-10-27T13:31:19Z</time>
      </trkpt>
      <trkpt lat="49.48386" lon="1.46299">
        <ele>87</ele>
        <time>2016-10-27T13:33:19Z</time>
      </trkpt>
      <trkpt lat="49.48385" lon="1.46267">
        <ele>87</ele>
        <time>2016-10-27T13:35:19Z</time>
      </trkpt>
      <trkpt lat="49.4847" lon="1.46299">
        <ele>87</ele>
        <time>2016-10-27T13:37:19Z</time>
      </trkpt>
      <trkpt lat="49.48519" lon="1.46292">
        <ele>87</ele>
        <time>2016-10-27T13:39:19Z</time>
      </trkpt>
      <trkpt lat="49.48579" lon="1.46275">
        <ele>84</ele>
        <time>2016-10-27T13:41:19Z</time>
      </trkpt>
      <trkpt lat="49.48588" lon="1.46226">
        <ele>84</ele>
        <time>2016-10-27T13:43:19Z</time>
      </trkpt>
      <trkpt lat="49.48605" lon="1.462">
        <ele>83</ele>
        <time>2016-10-27T13:45:19Z</time>
      </trkpt>
      <trkpt lat="49.4865" lon="1.46151">
        <ele>80</ele>
        <time>2016-10-27T13:47:19Z</time>
      </trkpt>
      <trkpt lat="49.48714" lon="1.45977">
        <ele>78</ele>
        <time>2016-10-27T13:49:19Z</time>
      </trkpt>
      <trkpt lat="49.48697" lon="1.45805">
        <ele>79</ele>
        <time>2016-10-27T13:51:19Z</time>
      </trkpt>
      <trkpt lat="49.48807" lon="1.4597">
        <ele>82</ele>
        <time>2016-10-27T13:53:19Z</time>
      </trkpt>
      <trkpt lat="49.48863" lon="1.46013">
        <ele>89</ele>
        <time>2016-10-27T13:55:19Z</time>
      </trkpt>
      <trkpt lat="49.48851" lon="1.46161">
        <ele>83</ele>
        <time>2016-10-27T13:57:19Z</time>
      </trkpt>
      <trkpt lat="49.48852" lon="1.46305">
        <ele>81</ele>
        <time>2016-10-27T13:59:19Z</time>
      </trkpt>
      <trkpt lat="49.48884" lon="1.46473">
        <ele>83</ele>
        <time>2016-10-27T14:01:19Z</time>
      </trkpt>
      <trkpt lat="49.48896" lon="1.46601">
        <ele>84</ele>
        <time>2016-10-27T14:03:19Z</time>
      </trkpt>
      <trkpt lat="49.48903" lon="1.46663">
        <ele>83</ele>
        <time>2016-10-27T14:05:19Z</time>
      </trkpt>
      <trkpt lat="49.48926" lon="1.46726">
        <ele>83</ele>
        <time>2016-10-27T14:07:19Z</time>
      </trkpt>
      <trkpt lat="49.48948" lon="1.46797">
        <ele>83</ele>
        <time>2016-10-27T14:09:19Z</time>
      </trkpt>
      <trkpt lat="49.48963" lon="1.46863">
        <ele>83</ele>
        <time>2016-10-27T14:11:19Z</time>
      </trkpt>
      <trkpt lat="49.48968" lon="1.46936">
        <ele>82</ele>
        <time>2016-10-27T14:13:19Z</time>
      </trkpt>
      <trkpt lat="49.48987" lon="1.46985">
        <ele>82</ele>
        <time>2016-10-27T14:15:19Z</time>
      </trkpt>
      <trkpt lat="49.49065" lon="1.47163">
        <ele>82</ele>
        <time>2016-10-27T14:17:19Z</time>
      </trkpt>
      <trkpt lat="49.4921" lon="1.47485">
        <ele>84</ele>
        <time>2016-10-27T14:19:19Z</time>
      </trkpt>
      <trkpt lat="49.49241" lon="1.47537">
        <ele>83</ele>
        <time>2016-10-27T14:21:19Z</time>
      </trkpt>
      <trkpt lat="49.49271" lon="1.47573">
        <ele>84</ele>
        <time>2016-10-27T14:23:19Z</time>
      </trkpt>
      <trkpt lat="49.49308" lon="1.47593">
        <ele>85</ele>
        <time>2016-10-27T14:25:19Z</time>
      </trkpt>
      <trkpt lat="49.49365" lon="1.47603">
        <ele>88</ele>
        <time>2016-10-27T14:27:19Z</time>
      </trkpt>
      <trkpt lat="49.49462" lon="1.47674">
        <ele>88</ele>
        <time>2016-10-27T14:29:19Z</time>
      </trkpt>
      <trkpt lat="49.4956" lon="1.47704">
        <ele>87</ele>
        <time>2016-10-27T14:31:19Z</time>
      </trkpt>
      <trkpt lat="49.49612" lon="1.47741">
        <ele>86</ele>
        <time>2016-10-27T14:33:19Z</time>
      </trkpt>
      <trkpt lat="49.49811" lon="1.47844">
        <ele>87</ele>
        <time>2016-10-27T14:35:19Z</time>
      </trkpt>
      <trkpt lat="49.49853" lon="1.47878">
        <ele>86</ele>
        <time>2016-10-27T14:37:19Z</time>
      </trkpt>
      <trkpt lat="49.49889" lon="1.47801">
        <ele>90</ele>
        <time>2016-10-27T14:39:19Z</time>
      </trkpt>
      <trkpt lat="49.50039" lon="1.47891">
        <ele>89</ele>
        <time>2016-10-27T14:41:19Z</time>
      </trkpt>
      <trkpt lat="49.50318" lon="1.47953">
        <ele>90</ele>
        <time>2016-10-27T14:43:19Z</time>
      </trkpt>
      <trkpt lat="49.50499" lon="1.4802">
        <ele>91</ele>
        <time>2016-10-27T14:45:19Z</time>
      </trkpt>
      <trkpt lat="49.50513" lon="1.47998">
        <ele>93</ele>
        <time>2016-10-27T14:47:19Z</time>
      </trkpt>
      <trkpt lat="49.50618" lon="1.48013">
        <ele>93</ele>
        <time>2016-10-27T14:49:19Z</time>
      </trkpt>
      <trkpt lat="49.50811" lon="1.48037">
        <ele>91</ele>
        <time>2016-10-27T14:51:19Z</time>
      </trkpt>
      <trkpt lat="49.50984" lon="1.47878">
        <ele>101</ele>
        <time>2016-10-27T14:53:19Z</time>
      </trkpt>
      <trkpt lat="49.51019" lon="1.47874">
        <ele>103</ele>
        <time>2016-10-27T14:55:19Z</time>
      </trkpt>
      <trkpt lat="49.51111" lon="1.47953">
        <ele>98</ele>
        <time>2016-10-27T14:57:19Z</time>
      </trkpt>
      <trkpt lat="49.51204" lon="1.48011">
        <ele>103</ele>
        <time>2016-10-27T14:59:19Z</time>
      </trkpt>
      <trkpt lat="49.51406" lon="1.48204">
        <ele>112</ele>
        <time>2016-10-27T15:01:19Z</time>
      </trkpt>
      <trkpt lat="49.51429" lon="1.48264">
        <ele>105</ele>
        <time>2016-10-27T15:03:19Z</time>
      </trkpt>
      <trkpt lat="49.51487" lon="1.48357">
        <ele>100</ele>
        <time>2016-10-27T15:05:19Z</time>
      </trkpt>
      <trkpt lat="49.51527" lon="1.48359">
        <ele>102</ele>
        <time>2016-10-27T15:07:19Z</time>
      </trkpt>
      <trkpt lat="49.51557" lon="1.48326">
        <ele>109</ele>
        <time>2016-10-27T15:09:19Z</time>
      </trkpt>
      <trkpt lat="49.51617" lon="1.48324">
        <ele>116</ele>
        <time>2016-10-27T15:11:19Z</time>
      </trkpt>
      <trkpt lat="49.51661" lon="1.48365">
        <ele>111</ele>
        <time>2016-10-27T15:13:19Z</time>
      </trkpt>
      <trkpt lat="49.51674" lon="1.48404">
        <ele>104</ele>
        <time>2016-10-27T15:15:19Z</time>
      </trkpt>
      <trkpt lat="49.51716" lon="1.48444">
        <ele>105</ele>
        <time>2016-10-27T15:17:19Z</time>
      </trkpt>
      <trkpt lat="49.51767" lon="1.48653">
        <ele>102</ele>
        <time>2016-10-27T15:19:19Z</time>
      </trkpt>
      <trkpt lat="49.51824" lon="1.48753">
        <ele>110</ele>
        <time>2016-10-27T15:21:19Z</time>
      </trkpt>
      <trkpt lat="49.51892" lon="1.48848">
        <ele>111</ele>
        <time>2016-10-27T15:23:19Z</time>
      </trkpt>
      <trkpt lat="49.51995" lon="1.48831">
        <ele>115</ele>
        <time>2016-10-27T15:25:19Z</time>
      </trkpt>
      <trkpt lat="49.52064" lon="1.48926">
        <ele>113</ele>
        <time>2016-10-27T15:27:19Z</time>
      </trkpt>
      <trkpt lat="49.52178" lon="1.48986">
        <ele>115</ele>
        <time>2016-10-27T15:29:19Z</time>
      </trkpt>
      <trkpt lat="49.52225" lon="1.49065">
        <ele>112</ele>
        <time>2016-10-27T15:31:19Z</time>
      </trkpt>
      <trkpt lat="49.52369" lon="1.49082">
        <ele>109</ele>
        <time>2016-10-27T15:33:19Z</time>
      </trkpt>
      <trkpt lat="49.52511" lon="1.49082">
        <ele>107</ele>
        <time>2016-10-27T15:35:19Z</time>
      </trkpt>
      <trkpt lat="49.52613" lon="1.4909">
        <ele>106</ele>
        <time>2016-10-27T15:37:19Z</time>
      </trkpt>
      <trkpt lat="49.52692" lon="1.49148">
        <ele>104</ele>
        <time>2016-10-27T15:39:19Z</time>
      </trkpt>
      <trkpt lat="49.52757" lon="1.49174">
        <ele>106</ele>
        <time>2016-10-27T15:41:19Z</time>
      </trkpt>
      <trkpt lat="49.52812" lon="1.49206">
        <ele>108</ele>
        <time>2016-10-27T15:43:19Z</time>
      </trkpt>
      <trkpt lat="49.52867" lon="1.49275">
        <ele>109</ele>
        <time>2016-10-27T15:45:19Z</time>
      </trkpt>
      <trkpt lat="49.52856" lon="1.49408">
        <ele>105</ele>
        <time>2016-10-27T15:47:19Z</time>
      </trkpt>
      <trkpt lat="49.52834" lon="1.49459">
        <ele>104</ele>
        <time>2016-10-27T15:49:19Z</time>
      </trkpt>
      <trkpt lat="49.5284" lon="1.49552">
        <ele>102</ele>
        <time>2016-10-27T15:51:19Z</time>
      </trkpt>
      <trkpt lat="49.52858" lon="1.4961">
        <ele>101</ele>
        <time>2016-10-27T15:53:19Z</time>
      </trkpt>
      <trkpt lat="49.52913" lon="1.49597">
        <ele>102</ele>
        <time>2016-10-27T15:55:19Z</time>
      </trkpt>
      <trkpt lat="49.52957" lon="1.49753">
        <ele>99</ele>
        <time>2016-10-27T15:57:19Z</time>
      </trkpt>
      <trkpt lat="49.52951" lon="1.49837">
        <ele>99</ele>
        <time>2016-10-27T15:59:19Z</time>
      </trkpt>
      <trkpt lat="49.52976" lon="1.49964">
        <ele>101</ele>
        <time>2016-10-27T16:01:19Z</time>
      </trkpt>
      <trkpt lat="49.53015" lon="1.49994">
        <ele>102</ele>
        <time>2016-10-27T16:03:19Z</time>
      </trkpt>
      <trkpt lat="49.52945" lon="1.50054">
        <ele>121</ele>
        <time>2016-10-27T16:05:19Z</time>
      </trkpt>
      <trkpt lat="49.52725" lon="1.49985">
        <ele>125</ele>
        <time>2016-10-27T16:07:19Z</time>
      </trkpt>
      <trkpt lat="49.5261" lon="1.50065">
        <ele>124</ele>
        <time>2016-10-27T16:09:19Z</time>
      </trkpt>
      <trkpt lat="49.52516" lon="1.50262">
        <ele>120</ele>
        <time>2016-10-27T16:11:19Z</time>
      </trkpt>
      <trkpt lat="49.52423" lon="1.50438">
        <ele>107</ele>
        <time>2016-10-27T16:13:19Z</time>
      </trkpt>
      <trkpt lat="49.52405" lon="1.50532">
        <ele>105</ele>
        <time>2016-10-27T16:15:19Z</time>
      </trkpt>
      <trkpt lat="49.52374" lon="1.50573">
        <ele>104</ele>
        <time>2016-10-27T16:17:19Z</time>
      </trkpt>
      <trkpt lat="49.52308" lon="1.50599">
        <ele>104</ele>
        <time>2016-10-27T16:19:19Z</time>
      </trkpt>
      <trkpt lat="49.52232" lon="1.50655">
        <ele>111</ele>
        <time>2016-10-27T16:21:19Z</time>
      </trkpt>
      <trkpt lat="49.52221" lon="1.50695">
        <ele>114</ele>
        <time>2016-10-27T16:23:19Z</time>
      </trkpt>
      <trkpt lat="49.52256" lon="1.50895">
        <ele>117</ele>
        <time>2016-10-27T16:25:19Z</time>
      </trkpt>
      <trkpt lat="49.52214" lon="1.50985">
        <ele>122</ele>
        <time>2016-10-27T16:27:19Z</time>
      </trkpt>
      <trkpt lat="49.52111" lon="1.51204">
        <ele>134</ele>
        <time>2016-10-27T16:29:19Z</time>
      </trkpt>
      <trkpt lat="49.52008" lon="1.51496">
        <ele>155</ele>
        <time>2016-10-27T16:31:19Z</time>
      </trkpt>
      <trkpt lat="49.52016" lon="1.51612">
        <ele>156</ele>
        <time>2016-10-27T16:33:19Z</time>
      </trkpt>
      <trkpt lat="49.51986" lon="1.51702">
        <ele>165</ele>
        <time>2016-10-27T16:35:19Z</time>
      </trkpt>
      <trkpt lat="49.51936" lon="1.51813">
        <ele>180</ele>
        <time>2016-10-27T16:37:19Z</time>
      </trkpt>
      <trkpt lat="49.51888" lon="1.51942">
        <ele>183</ele>
        <time>2016-10-27T16:39:19Z</time>
      </trkpt>
      <trkpt lat="49.51796" lon="1.51938">
        <ele>194</ele>
        <time>2016-10-27T16:41:19Z</time>
      </trkpt>
      <trkpt lat="49.5171" lon="1.52092">
        <ele>200</ele>
        <time>2016-10-27T16:43:19Z</time>
      </trkpt>
      <trkpt lat="49.5152" lon="1.52418">
        <ele>206</ele>
        <time>2016-10-27T16:45:19Z</time>
      </trkpt>
      <trkpt lat="49.51317" lon="1.53011">
        <ele>204</ele>
        <time>2016-10-27T16:47:19Z</time>
      </trkpt>
      <trkpt lat="49.51083" lon="1.53517">
        <ele>209</ele>
        <time>2016-10-27T16:49:19Z</time>
      </trkpt>
      <trkpt lat="49.50969" lon="1.53749">
        <ele>211</ele>
        <time>2016-10-27T16:51:19Z</time>
      </trkpt>
      <trkpt lat="49.50855" lon="1.53873">
        <ele>210</ele>
        <time>2016-10-27T16:53:19Z</time>
      </trkpt>
      <trkpt lat="49.50698" lon="1.54105">
        <ele>207</ele>
        <time>2016-10-27T16:55:19Z</time>
      </trkpt>
      <trkpt lat="49.50673" lon="1.54208">
        <ele>207</ele>
        <time>2016-10-27T16:57:19Z</time>
      </trkpt>
      <trkpt lat="49.50612" lon="1.54302">
        <ele>210</ele>
        <time>2016-10-27T16:59:19Z</time>
      </trkpt>
      <trkpt lat="49.50601" lon="1.54457">
        <ele>209</ele>
        <time>2016-10-27T17:01:19Z</time>
      </trkpt>
      <trkpt lat="49.50621" lon="1.54782">
        <ele>191</ele>
        <time>2016-10-27T17:03:19Z</time>
      </trkpt>
      <trkpt lat="49.50512" lon="1.55121">
        <ele>201</ele>
        <time>2016-10-27T17:05:19Z</time>
      </trkpt>
      <trkpt lat="49.50426" lon="1.55426">
        <ele>212</ele>
        <time>2016-10-27T17:07:19Z</time>
      </trkpt>
      <trkpt lat="49.5034" lon="1.55646">
        <ele>221</ele>
        <time>2016-10-27T17:09:19Z</time>
      </trkpt>
      <trkpt lat="49.503" lon="1.55841">
        <ele>222</ele>
        <time>2016-10-27T17:11:19Z</time>
      </trkpt>
      <trkpt lat="49.50491" lon="1.55601">
        <ele>234</ele>
        <time>2016-10-27T17:13:19Z</time>
      </trkpt>
      <trkpt lat="49.50664" lon="1.5547">
        <ele>235</ele>
        <time>2016-10-27T17:15:19Z</time>
      </trkpt>
      <trkpt lat="49.5091" lon="1.55757">
        <ele>237</ele>
        <time>2016-10-27T17:17:19Z</time>
      </trkpt>
      <trkpt lat="49.50615" lon="1.57594">
        <ele>239</ele>
        <time>2016-10-27T17:19:19Z</time>
      </trkpt>
      <trkpt lat="49.50439" lon="1.57916">
        <ele>229</ele>
        <time>2016-10-27T17:21:19Z</time>
      </trkpt>
      <trkpt lat="49.50495" lon="1.5801">
        <ele>229</ele>
        <time>2016-10-27T17:23:19Z</time>
      </trkpt>
      <trkpt lat="49.50503" lon="1.58075">
        <ele>229</ele>
        <time>2016-10-27T17:25:19Z</time>
      </trkpt>
      <trkpt lat="49.504" lon="1.58448">
        <ele>227</ele>
        <time>2016-10-27T17:27:19Z</time>
      </trkpt>
      <trkpt lat="49.50289" lon="1.58641">
        <ele>228</ele>
        <time>2016-10-27T17:29:19Z</time>
      </trkpt>
      <trkpt lat="49.50216" lon="1.58706">
        <ele>228</ele>
        <time>2016-10-27T17:31:19Z</time>
      </trkpt>
      <trkpt lat="49.50155" lon="1.58585">
        <ele>229</ele>
        <time>2016-10-27T17:33:19Z</time>
      </trkpt>
      <trkpt lat="49.50052" lon="1.58264">
        <ele>230</ele>
        <time>2016-10-27T17:35:19Z</time>
      </trkpt>
      <trkpt lat="49.49932" lon="1.58079">
        <ele>232</ele>
        <time>2016-10-27T17:37:19Z</time>
      </trkpt>
      <trkpt lat="49.49812" lon="1.57955">
        <ele>230</ele>
        <time>2016-10-27T17:39:19Z</time>
      </trkpt>
      <trkpt lat="49.49784" lon="1.57873">
        <ele>229</ele>
        <time>2016-10-27T17:41:19Z</time>
      </trkpt>
      <trkpt lat="49.49681" lon="1.578">
        <ele>227</ele>
        <time>2016-10-27T17:43:19Z</time>
      </trkpt>
      <trkpt lat="49.49567" lon="1.57714">
        <ele>227</ele>
        <time>2016-10-27T17:45:19Z</time>
      </trkpt>
      <trkpt lat="49.49096" lon="1.57324">
        <ele>230</ele>
        <time>2016-10-27T17:47:19Z</time>
      </trkpt>
      <trkpt lat="49.48848" lon="1.56873">
        <ele>225</ele>
        <time>2016-10-27T17:49:19Z</time>
      </trkpt>
      <trkpt lat="49.48725" lon="1.56616">
        <ele>221</ele>
        <time>2016-10-27T17:51:19Z</time>
      </trkpt>
      <trkpt lat="49.48563" lon="1.56427">
        <ele>213</ele>
        <time>2016-10-27T17:53:19Z</time>
      </trkpt>
      <trkpt lat="49.4829" lon="1.56268">
        <ele>207</ele>
        <time>2016-10-27T17:55:19Z</time>
      </trkpt>
      <trkpt lat="49.4812" lon="1.56122">
        <ele>202</ele>
        <time>2016-10-27T17:57:19Z</time>
      </trkpt>
      <trkpt lat="49.48421" lon="1.55671">
        <ele>209</ele>
        <time>2016-10-27T17:59:19Z</time>
      </trkpt>
      <trkpt lat="49.48382" lon="1.55581">
        <ele>209</ele>
        <time>2016-10-27T18:01:19Z</time>
      </trkpt>
      <trkpt lat="49.48162" lon="1.55324">
        <ele>204</ele>
        <time>2016-10-27T18:03:19Z</time>
      </trkpt>
      <trkpt lat="49.48059" lon="1.55139">
        <ele>201</ele>
        <time>2016-10-27T18:05:19Z</time>
      </trkpt>
      <trkpt lat="49.47986" lon="1.5495">
        <ele>202</ele>
        <time>2016-10-27T18:07:19Z</time>
      </trkpt>
      <trkpt lat="49.47799" lon="1.5465">
        <ele>195</ele>
        <time>2016-10-27T18:09:19Z</time>
      </trkpt>
      <trkpt lat="49.47732" lon="1.54603">
        <ele>188</ele>
        <time>2016-10-27T18:11:19Z</time>
      </trkpt>
      <trkpt lat="49.47654" lon="1.54629">
        <ele>177</ele>
        <time>2016-10-27T18:13:19Z</time>
      </trkpt>
      <trkpt lat="49.47604" lon="1.54547">
        <ele>176</ele>
        <time>2016-10-27T18:15:19Z</time>
      </trkpt>
      <trkpt lat="49.47582" lon="1.54453">
        <ele>172</ele>
        <time>2016-10-27T18:17:19Z</time>
      </trkpt>
      <trkpt lat="49.47657" lon="1.54221">
        <ele>171</ele>
        <time>2016-10-27T18:19:19Z</time>
      </trkpt>
      <trkpt lat="49.47735" lon="1.54114">
        <ele>171</ele>
        <time>2016-10-27T18:21:19Z</time>
      </trkpt>
      <trkpt lat="49.47749" lon="1.54023">
        <ele>168</ele>
        <time>2016-10-27T18:23:19Z</time>
      </trkpt>
      <trkpt lat="49.4773" lon="1.53856">
        <ele>167</ele>
        <time>2016-10-27T18:25:19Z</time>
      </trkpt>
      <trkpt lat="49.47632" lon="1.53551">
        <ele>158</ele>
        <time>2016-10-27T18:27:19Z</time>
      </trkpt>
      <trkpt lat="49.47772" lon="1.53328">
        <ele>155</ele>
        <time>2016-10-27T18:29:19Z</time>
      </trkpt>
      <trkpt lat="49.47852" lon="1.53165">
        <ele>149</ele>
        <time>2016-10-27T18:31:19Z</time>
      </trkpt>
      <trkpt lat="49.47964" lon="1.53041">
        <ele>155</ele>
        <time>2016-10-27T18:33:19Z</time>
      </trkpt>
      <trkpt lat="49.47958" lon="1.52908">
        <ele>146</ele>
        <time>2016-10-27T18:35:19Z</time>
      </trkpt>
      <trkpt lat="49.48025" lon="1.52693">
        <ele>132</ele>
        <time>2016-10-27T18:37:19Z</time>
      </trkpt>
      <trkpt lat="49.4814" lon="1.52642">
        <ele>137</ele>
        <time>2016-10-27T18:39:19Z</time>
      </trkpt>
      <trkpt lat="49.48117" lon="1.52564">
        <ele>139</ele>
        <time>2016-10-27T18:41:19Z</time>
      </trkpt>
      <trkpt lat="49.48137" lon="1.52466">
        <ele>145</ele>
        <time>2016-10-27T18:43:19Z</time>
      </trkpt>
      <trkpt lat="49.48173" lon="1.5247">
        <ele>154</ele>
        <time>2016-10-27T18:45:19Z</time>
      </trkpt>
      <trkpt lat="49.48179" lon="1.52285">
        <ele>150</ele>
        <time>2016-10-27T18:47:19Z</time>
      </trkpt>
      <trkpt lat="49.48156" lon="1.52032">
        <ele>136</ele>
        <time>2016-10-27T18:49:19Z</time>
      </trkpt>
      <trkpt lat="49.48173" lon="1.51942">
        <ele>132</ele>
        <time>2016-10-27T18:51:19Z</time>
      </trkpt>
      <trkpt lat="49.48237" lon="1.51826">
        <ele>132</ele>
        <time>2016-10-27T18:53:19Z</time>
      </trkpt>
      <trkpt lat="49.48273" lon="1.51667">
        <ele>126</ele>
        <time>2016-10-27T18:55:19Z</time>
      </trkpt>
      <trkpt lat="49.48271" lon="1.51547">
        <ele>125</ele>
        <time>2016-10-27T18:57:19Z</time>
      </trkpt>
      <trkpt lat="49.48254" lon="1.51491">
        <ele>123</ele>
        <time>2016-10-27T18:59:19Z</time>
      </trkpt>
      <trkpt lat="49.48061" lon="1.51316">
        <ele>139</ele>
        <time>2016-10-27T19:01:19Z</time>
      </trkpt>
      <trkpt lat="49.48034" lon="1.51221">
        <ele>153</ele>
        <time>2016-10-27T19:03:19Z</time>
      </trkpt>
      <trkpt lat="49.48" lon="1.51191">
        <ele>164</ele>
        <time>2016-10-27T19:05:19Z</time>
      </trkpt>
      <trkpt lat="49.47922" lon="1.50916">
        <ele>179</ele>
        <time>2016-10-27T19:07:19Z</time>
      </trkpt>
      <trkpt lat="49.47724" lon="1.50706">
        <ele>180</ele>
        <time>2016-10-27T19:09:19Z</time>
      </trkpt>
      <trkpt lat="49.47679" lon="1.50672">
        <ele>181</ele>
        <time>2016-10-27T19:11:19Z</time>
      </trkpt>
      <trkpt lat="49.47663" lon="1.5062">
        <ele>182</ele>
        <time>2016-10-27T19:13:19Z</time>
      </trkpt>
      <trkpt lat="49.47465" lon="1.50363">
        <ele>184</ele>
        <time>2016-10-27T19:15:19Z</time>
      </trkpt>
      <trkpt lat="49.47487" lon="1.50286">
        <ele>183</ele>
        <time>2016-10-27T19:17:19Z</time>
      </trkpt>
      <trkpt lat="49.47314" lon="1.50071">
        <ele>182</ele>
        <time>2016-10-27T19:19:19Z</time>
      </trkpt>
      <trkpt lat="49.4718" lon="1.49792">
        <ele>181</ele>
        <time>2016-10-27T19:21:19Z</time>
      </trkpt>
      <trkpt lat="49.4691" lon="1.50015">
        <ele>173</ele>
        <time>2016-10-27T19:23:19Z</time>
      </trkpt>
      <trkpt lat="49.46812" lon="1.5008">
        <ele>171</ele>
        <time>2016-10-27T19:25:19Z</time>
      </trkpt>
      <trkpt lat="49.46637" lon="1.50161">
        <ele>176</ele>
        <time>2016-10-27T19:27:19Z</time>
      </trkpt>
      <trkpt lat="49.46564" lon="1.49925">
        <ele>173</ele>
        <time>2016-10-27T19:29:19Z</time>
      </trkpt>
      <trkpt lat="49.46544" lon="1.49831">
        <ele>172</ele>
        <time>2016-10-27T19:31:19Z</time>
      </trkpt>
      <trkpt lat="49.46536" lon="1.49715">
        <ele>177</ele>
        <time>2016-10-27T19:33:19Z</time>
      </trkpt>
      <trkpt lat="49.46525" lon="1.49633">
        <ele>180</ele>
        <time>2016-10-27T19:35:19Z</time>
      </trkpt>
      <trkpt lat="49.46536" lon="1.49539">
        <ele>178</ele>
        <time>2016-10-27T19:37:19Z</time>
      </trkpt>
      <trkpt lat="49.46517" lon="1.49466">
        <ele>170</ele>
        <time>2016-10-27T19:39:19Z</time>
      </trkpt>
      <trkpt lat="49.46581" lon="1.49007">
        <ele>166</ele>
        <time>2016-10-27T19:41:19Z</time>
      </trkpt>
      <trkpt lat="49.46578" lon="1.48934">
        <ele>164</ele>
        <time>2016-10-27T19:43:19Z</time>
      </trkpt>
      <trkpt lat="49.4645" lon="1.48711">
        <ele>153</ele>
        <time>2016-10-27T19:45:19Z</time>
      </trkpt>
      <trkpt lat="49.46383" lon="1.48556">
        <ele>150</ele>
        <time>2016-10-27T19:47:19Z</time>
      </trkpt>
      <trkpt lat="49.46327" lon="1.48462">
        <ele>146</ele>
        <time>2016-10-27T19:49:19Z</time>
      </trkpt>
      <trkpt lat="49.46176" lon="1.48578">
        <ele>163</ele>
        <time>2016-10-27T19:51:19Z</time>
      </trkpt>
      <trkpt lat="49.46084" lon="1.48741">
        <ele>169</ele>
        <time>2016-10-27T19:53:19Z</time>
      </trkpt>
      <trkpt lat="49.46084" lon="1.48539">
        <ele>164</ele>
        <time>2016-10-27T19:55:19Z</time>
      </trkpt>
      <trkpt lat="49.46126" lon="1.48316">
        <ele>165</ele>
        <time>2016-10-27T19:57:19Z</time>
      </trkpt>
      <trkpt lat="49.45663" lon="1.47578">
        <ele>167</ele>
        <time>2016-10-27T19:59:19Z</time>
      </trkpt>
      <trkpt lat="49.45166" lon="1.47621">
        <ele>162</ele>
        <time>2016-10-27T20:01:19Z</time>
      </trkpt>
      <trkpt lat="49.44631" lon="1.49612">
        <ele>173</ele>
        <time>2016-10-27T20:03:19Z</time>
      </trkpt>
      <trkpt lat="49.4465" lon="1.49775">
        <ele>179</ele>
        <time>2016-10-27T20:05:19Z</time>
      </trkpt>
      <trkpt lat="49.44634" lon="1.49835">
        <ele>179</ele>
        <time>2016-10-27T20:07:19Z</time>
      </trkpt>
      <trkpt lat="49.44642" lon="1.50153">
        <ele>176</ele>
        <time>2016-10-27T20:09:19Z</time>
      </trkpt>
      <trkpt lat="49.44586" lon="1.50277">
        <ele>168</ele>
        <time>2016-10-27T20:11:19Z</time>
      </trkpt>
      <trkpt lat="49.44575" lon="1.5044">
        <ele>158</ele>
        <time>2016-10-27T20:13:19Z</time>
      </trkpt>
      <trkpt lat="49.44553" lon="1.50509">
        <ele>164</ele>
        <time>2016-10-27T20:15:19Z</time>
      </trkpt>
      <trkpt lat="49.44463" lon="1.50466">
        <ele>167</ele>
        <time>2016-10-27T20:17:19Z</time>
      </trkpt>
      <trkpt lat="49.445" lon="1.50577">
        <ele>178</ele>
        <time>2016-10-27T20:19:19Z</time>
      </trkpt>
      <trkpt lat="49.44483" lon="1.50732">
        <ele>182</ele>
        <time>2016-10-27T20:21:19Z</time>
      </trkpt>
      <trkpt lat="49.44433" lon="1.50921">
        <ele>178</ele>
        <time>2016-10-27T20:23:19Z</time>
      </trkpt>
      <trkpt lat="49.4419" lon="1.51388">
        <ele>169</ele>
        <time>2016-10-27T20:25:19Z</time>
      </trkpt>
      <trkpt lat="49.44193" lon="1.51513">
        <ele>165</ele>
        <time>2016-10-27T20:27:19Z</time>
      </trkpt>
      <trkpt lat="49.44109" lon="1.5159">
        <ele>164</ele>
        <time>2016-10-27T20:29:19Z</time>
      </trkpt>
      <trkpt lat="49.4393" lon="1.5165">
        <ele>149</ele>
        <time>2016-10-27T20:31:19Z</time>
      </trkpt>
      <trkpt lat="49.44156" lon="1.51964">
        <ele>146</ele>
        <time>2016-10-27T20:33:19Z</time>
      </trkpt>
      <trkpt lat="49.44193" lon="1.52024">
        <ele>143</ele>
        <time>2016-10-27T20:35:19Z</time>
      </trkpt>
      <trkpt lat="49.4431" lon="1.51968">
        <ele>142</ele>
        <time>2016-10-27T20:37:19Z</time>
      </trkpt>
      <trkpt lat="49.44533" lon="1.51989">
        <ele>145</ele>
        <time>2016-10-27T20:39:19Z</time>
      </trkpt>
      <trkpt lat="49.44608" lon="1.52075">
        <ele>147</ele>
        <time>2016-10-27T20:41:19Z</time>
      </trkpt>
      <trkpt lat="49.44594" lon="1.52264">
        <ele>148</ele>
        <time>2016-10-27T20:43:19Z</time>
      </trkpt>
      <trkpt lat="49.44773" lon="1.52436">
        <ele>150</ele>
        <time>2016-10-27T20:45:19Z</time>
      </trkpt>
      <trkpt lat="49.44963" lon="1.52551">
        <ele>157</ele>
        <time>2016-10-27T20:47:19Z</time>
      </trkpt>
      <trkpt lat="49.45222" lon="1.52933">
        <ele>173</ele>
        <time>2016-10-27T20:49:19Z</time>
      </trkpt>
      <trkpt lat="49.45292" lon="1.52878">
        <ele>168</ele>
        <time>2016-10-27T20:51:19Z</time>
      </trkpt>
      <trkpt lat="49.45987" lon="1.52032">
        <ele>173</ele>
        <time>2016-10-27T20:53:19Z</time>
      </trkpt>
      <trkpt lat="49.46015" lon="1.51981">
        <ele>174</ele>
        <time>2016-10-27T20:55:19Z</time>
      </trkpt>
      <trkpt lat="49.46051" lon="1.51964">
        <ele>175</ele>
        <time>2016-10-27T20:57:19Z</time>
      </trkpt>
      <trkpt lat="49.46048" lon="1.51912">
        <ele>175</ele>
        <time>2016-10-27T20:59:19Z</time>
      </trkpt>
      <trkpt lat="49.46226" lon="1.51693">
        <ele>177</ele>
        <time>2016-10-27T21:01:19Z</time>
      </trkpt>
      <trkpt lat="49.46285" lon="1.51637">
        <ele>175</ele>
        <time>2016-10-27T21:03:19Z</time>
      </trkpt>
      <trkpt lat="49.46289" lon="1.51609">
        <ele>174</ele>
        <time>2016-10-27T21:05:19Z</time>
      </trkpt>
      <trkpt lat="49.46398" lon="1.51522">
        <ele>177</ele>
        <time>2016-10-27T21:07:19Z</time>
      </trkpt>
    </trkseg>
  </trk>
</gpx>